sensor_id;sensor_type;location;lat;lon;timestamp;P1;durP1;ratioP1;P2;durP2;ratioP2
18425;SDS011;9340;48.756;9.226;2023-02-11T00:00:15;24.63;;;17.07;;
18425;SDS011;9340;48.756;9.226;2023-02-11T00:02:43;28.53;;;17.93;;
18425;SDS011;9340;48.756;9.226;2023-02-11T00:05:10;31.50;;;19.40;;
18425;SDS011;9340;48.756;9.226;2023-02-11T00:07:37;32.10;;;18.93;;
18425;SDS011;9340;48.756;9.226;2023-02-11T00:10:05;29.33;;;18.43;;
18425;SDS011;9340;48.756;9.226;2023-02-11T00:12:32;29.37;;;17.20;;
18425;SDS011;9340;48.756;9.226;2023-02-11T00:15:00;32.87;;;18.70;;
18425;SDS011;9340;48.756;9.226;2023-02-11T00:17:29;28.70;;;19.43;;
18425;SDS011;9340;48.756;9.226;2023-02-11T00:19:57;33.37;;;19.83;;
18425;SDS011;9340;48.756;9.226;2023-02-11T00:22:24;31.13;;;18.60;;
18425;SDS011;9340;48.756;9.226;2023-02-11T00:24:52;31.20;;;19.80;;
18425;SDS011;9340;48.756;9.226;2023-02-11T00:27:19;28.50;;;18.40;;
18425;SDS011;9340;48.756;9.226;2023-02-11T00:29:46;30.13;;;19.47;;
18425;SDS011;9340;48.756;9.226;2023-02-11T00:32:13;29.00;;;19.07;;
18425;SDS011;9340;48.756;9.226;2023-02-11T00:34:41;29.30;;;19.70;;
18425;SDS011;9340;48.756;9.226;2023-02-11T00:37:22;29.07;;;19.07;;
18425;SDS011;9340;48.756;9.226;2023-02-11T00:40:04;31.93;;;18.77;;
18425;SDS011;9340;48.756;9.226;2023-02-11T00:42:43;30.97;;;19.37;;
18425;SDS011;9340;48.756;9.226;2023-02-11T00:45:25;31.10;;;19.93;;
18425;SDS011;9340;48.756;9.226;2023-02-11T00:48:41;36.13;;;19.97;;
18425;SDS011;9340;48.756;9.226;2023-02-11T00:51:23;31.73;;;20.23;;
18425;SDS011;9340;48.756;9.226;2023-02-11T00:53:58;31.90;;;20.03;;
18425;SDS011;9340;48.756;9.226;2023-02-11T00:56:33;33.57;;;20.47;;
18425;SDS011;9340;48.756;9.226;2023-02-11T00:59:07;34.77;;;20.90;;
18425;SDS011;9340;48.756;9.226;2023-02-11T01:01:36;33.93;;;20.93;;
18425;SDS011;9340;48.756;9.226;2023-02-11T01:04:17;31.10;;;19.10;;
18425;SDS011;9340;48.756;9.226;2023-02-11T01:07:09;31.03;;;20.27;;
18425;SDS011;9340;48.756;9.226;2023-02-11T01:09:47;32.60;;;19.67;;
18425;SDS011;9340;48.756;9.226;2023-02-11T01:12:20;33.47;;;21.70;;
18425;SDS011;9340;48.756;9.226;2023-02-11T01:14:54;30.03;;;20.50;;
18425;SDS011;9340;48.756;9.226;2023-02-11T01:17:53;33.07;;;20.43;;
18425;SDS011;9340;48.756;9.226;2023-02-11T01:20:29;31.63;;;20.93;;
18425;SDS011;9340;48.756;9.226;2023-02-11T01:23:11;33.83;;;20.67;;
18425;SDS011;9340;48.756;9.226;2023-02-11T01:25:51;30.80;;;20.17;;
18425;SDS011;9340;48.756;9.226;2023-02-11T01:28:32;33.87;;;20.80;;
18425;SDS011;9340;48.756;9.226;2023-02-11T01:31:06;33.70;;;22.30;;
18425;SDS011;9340;48.756;9.226;2023-02-11T01:33:49;32.33;;;20.93;;
18425;SDS011;9340;48.756;9.226;2023-02-11T01:36:30;34.37;;;21.40;;
18425;SDS011;9340;48.756;9.226;2023-02-11T01:39:05;32.53;;;21.77;;
18425;SDS011;9340;48.756;9.226;2023-02-11T01:41:43;33.20;;;19.60;;
18425;SDS011;9340;48.756;9.226;2023-02-11T01:44:21;29.77;;;19.57;;
18425;SDS011;9340;48.756;9.226;2023-02-11T01:47:05;29.87;;;20.23;;
18425;SDS011;9340;48.756;9.226;2023-02-11T01:49:38;33.50;;;20.37;;
18425;SDS011;9340;48.756;9.226;2023-02-11T01:52:12;36.60;;;21.60;;
18425;SDS011;9340;48.756;9.226;2023-02-11T01:54:54;32.63;;;20.73;;
18425;SDS011;9340;48.756;9.226;2023-02-11T01:57:50;32.67;;;20.80;;
18425;SDS011;9340;48.756;9.226;2023-02-11T02:00:42;29.73;;;19.30;;
18425;SDS011;9340;48.756;9.226;2023-02-11T02:06:29;32.43;;;20.97;;
18425;SDS011;9340;48.756;9.226;2023-02-11T02:09:27;34.50;;;20.47;;
18425;SDS011;9340;48.756;9.226;2023-02-11T02:12:22;33.43;;;20.67;;
18425;SDS011;9340;48.756;9.226;2023-02-11T02:18:16;33.67;;;20.47;;
18425;SDS011;9340;48.756;9.226;2023-02-11T02:28:10;33.87;;;20.80;;
18425;SDS011;9340;48.756;9.226;2023-02-11T02:34:33;31.23;;;19.90;;
18425;SDS011;9340;48.756;9.226;2023-02-11T02:37:25;31.30;;;20.23;;
18425;SDS011;9340;48.756;9.226;2023-02-11T02:40:10;32.50;;;20.73;;
18425;SDS011;9340;48.756;9.226;2023-02-11T02:42:47;31.77;;;20.53;;
18425;SDS011;9340;48.756;9.226;2023-02-11T02:48:42;32.50;;;21.53;;
18425;SDS011;9340;48.756;9.226;2023-02-11T02:57:57;31.40;;;21.23;;
18425;SDS011;9340;48.756;9.226;2023-02-11T03:01:02;32.40;;;21.13;;
18425;SDS011;9340;48.756;9.226;2023-02-11T03:04:13;32.60;;;20.63;;
18425;SDS011;9340;48.756;9.226;2023-02-11T03:07:02;34.70;;;21.10;;
18425;SDS011;9340;48.756;9.226;2023-02-11T03:09:47;28.93;;;19.37;;
18425;SDS011;9340;48.756;9.226;2023-02-11T03:12:27;34.30;;;21.10;;
18425;SDS011;9340;48.756;9.226;2023-02-11T03:15:01;36.63;;;21.60;;
18425;SDS011;9340;48.756;9.226;2023-02-11T03:17:43;32.93;;;21.07;;
18425;SDS011;9340;48.756;9.226;2023-02-11T03:20:33;35.23;;;21.60;;
18425;SDS011;9340;48.756;9.226;2023-02-11T03:23:14;35.57;;;21.63;;
18425;SDS011;9340;48.756;9.226;2023-02-11T03:26:07;32.93;;;21.67;;
18425;SDS011;9340;48.756;9.226;2023-02-11T03:29:01;32.77;;;20.87;;
18425;SDS011;9340;48.756;9.226;2023-02-11T03:35:01;31.67;;;20.53;;
18425;SDS011;9340;48.756;9.226;2023-02-11T03:38:03;32.87;;;21.67;;
18425;SDS011;9340;48.756;9.226;2023-02-11T03:41:09;28.63;;;20.40;;
18425;SDS011;9340;48.756;9.226;2023-02-11T03:44:39;28.30;;;19.40;;
18425;SDS011;9340;48.756;9.226;2023-02-11T03:54:07;26.80;;;18.70;;
18425;SDS011;9340;48.756;9.226;2023-02-11T03:56:55;30.47;;;19.13;;
18425;SDS011;9340;48.756;9.226;2023-02-11T04:00:05;31.80;;;21.27;;
18425;SDS011;9340;48.756;9.226;2023-02-11T04:02:53;29.20;;;19.50;;
18425;SDS011;9340;48.756;9.226;2023-02-11T04:05:31;28.20;;;19.67;;
18425;SDS011;9340;48.756;9.226;2023-02-11T04:08:22;27.20;;;19.20;;
18425;SDS011;9340;48.756;9.226;2023-02-11T04:11:01;25.83;;;19.90;;
18425;SDS011;9340;48.756;9.226;2023-02-11T04:14:22;26.80;;;19.07;;
18425;SDS011;9340;48.756;9.226;2023-02-11T04:16:55;30.03;;;19.73;;
18425;SDS011;9340;48.756;9.226;2023-02-11T04:19:27;34.33;;;21.30;;
18425;SDS011;9340;48.756;9.226;2023-02-11T04:25:19;32.00;;;19.07;;
18425;SDS011;9340;48.756;9.226;2023-02-11T04:28:31;26.17;;;19.43;;
18425;SDS011;9340;48.756;9.226;2023-02-11T04:31:22;28.37;;;18.57;;
18425;SDS011;9340;48.756;9.226;2023-02-11T04:34:37;29.27;;;18.17;;
18425;SDS011;9340;48.756;9.226;2023-02-11T04:37:05;26.73;;;18.87;;
18425;SDS011;9340;48.756;9.226;2023-02-11T04:39:32;28.40;;;19.90;;
18425;SDS011;9340;48.756;9.226;2023-02-11T04:42:00;27.03;;;19.77;;
18425;SDS011;9340;48.756;9.226;2023-02-11T04:44:27;26.53;;;18.70;;
18425;SDS011;9340;48.756;9.226;2023-02-11T04:46:54;25.77;;;18.90;;
18425;SDS011;9340;48.756;9.226;2023-02-11T04:49:21;24.93;;;18.40;;
18425;SDS011;9340;48.756;9.226;2023-02-11T04:51:48;28.23;;;19.37;;
18425;SDS011;9340;48.756;9.226;2023-02-11T04:54:14;29.10;;;19.27;;
18425;SDS011;9340;48.756;9.226;2023-02-11T04:56:41;29.27;;;19.57;;
18425;SDS011;9340;48.756;9.226;2023-02-11T04:59:10;28.10;;;18.83;;
18425;SDS011;9340;48.756;9.226;2023-02-11T05:01:37;30.57;;;20.63;;
18425;SDS011;9340;48.756;9.226;2023-02-11T05:04:04;31.43;;;19.90;;
18425;SDS011;9340;48.756;9.226;2023-02-11T05:06:31;30.67;;;21.47;;
18425;SDS011;9340;48.756;9.226;2023-02-11T05:08:58;27.67;;;20.07;;
18425;SDS011;9340;48.756;9.226;2023-02-11T05:11:25;32.10;;;21.33;;
18425;SDS011;9340;48.756;9.226;2023-02-11T05:13:51;30.03;;;20.87;;
18425;SDS011;9340;48.756;9.226;2023-02-11T05:19:04;30.07;;;19.90;;
18425;SDS011;9340;48.756;9.226;2023-02-11T05:21:31;27.70;;;21.20;;
18425;SDS011;9340;48.756;9.226;2023-02-11T05:23:58;31.27;;;21.03;;
18425;SDS011;9340;48.756;9.226;2023-02-11T05:26:25;26.27;;;19.90;;
18425;SDS011;9340;48.756;9.226;2023-02-11T05:28:51;29.63;;;20.67;;
18425;SDS011;9340;48.756;9.226;2023-02-11T05:31:18;28.70;;;20.57;;
18425;SDS011;9340;48.756;9.226;2023-02-11T05:33:45;29.80;;;22.23;;
18425;SDS011;9340;48.756;9.226;2023-02-11T05:36:13;31.00;;;19.73;;
18425;SDS011;9340;48.756;9.226;2023-02-11T05:38:40;28.83;;;20.73;;
18425;SDS011;9340;48.756;9.226;2023-02-11T05:41:08;29.57;;;22.17;;
18425;SDS011;9340;48.756;9.226;2023-02-11T05:43:35;28.33;;;19.93;;
18425;SDS011;9340;48.756;9.226;2023-02-11T05:46:02;30.13;;;21.67;;
18425;SDS011;9340;48.756;9.226;2023-02-11T05:48:30;31.87;;;21.30;;
18425;SDS011;9340;48.756;9.226;2023-02-11T05:50:56;29.13;;;20.77;;
18425;SDS011;9340;48.756;9.226;2023-02-11T05:53:24;28.93;;;21.27;;
18425;SDS011;9340;48.756;9.226;2023-02-11T05:55:51;32.73;;;22.40;;
18425;SDS011;9340;48.756;9.226;2023-02-11T05:58:18;33.67;;;23.87;;
18425;SDS011;9340;48.756;9.226;2023-02-11T06:00:45;30.23;;;22.23;;
18425;SDS011;9340;48.756;9.226;2023-02-11T06:03:11;29.20;;;20.97;;
18425;SDS011;9340;48.756;9.226;2023-02-11T06:05:38;29.17;;;21.67;;
18425;SDS011;9340;48.756;9.226;2023-02-11T06:08:05;31.07;;;21.83;;
18425;SDS011;9340;48.756;9.226;2023-02-11T06:10:33;33.90;;;22.43;;
18425;SDS011;9340;48.756;9.226;2023-02-11T06:13:00;29.83;;;21.63;;
18425;SDS011;9340;48.756;9.226;2023-02-11T06:15:27;29.83;;;21.83;;
18425;SDS011;9340;48.756;9.226;2023-02-11T06:17:54;28.40;;;20.40;;
18425;SDS011;9340;48.756;9.226;2023-02-11T06:20:21;31.37;;;21.63;;
18425;SDS011;9340;48.756;9.226;2023-02-11T06:22:48;32.07;;;23.30;;
18425;SDS011;9340;48.756;9.226;2023-02-11T06:25:14;30.70;;;20.90;;
18425;SDS011;9340;48.756;9.226;2023-02-11T06:27:42;27.70;;;21.20;;
18425;SDS011;9340;48.756;9.226;2023-02-11T06:30:10;31.87;;;22.93;;
18425;SDS011;9340;48.756;9.226;2023-02-11T06:32:38;26.87;;;20.60;;
18425;SDS011;9340;48.756;9.226;2023-02-11T06:35:05;28.57;;;21.47;;
18425;SDS011;9340;48.756;9.226;2023-02-11T06:37:33;28.37;;;20.87;;
18425;SDS011;9340;48.756;9.226;2023-02-11T06:39:59;29.60;;;21.93;;
18425;SDS011;9340;48.756;9.226;2023-02-11T06:42:26;32.07;;;22.47;;
18425;SDS011;9340;48.756;9.226;2023-02-11T06:44:54;30.87;;;21.83;;
18425;SDS011;9340;48.756;9.226;2023-02-11T06:47:21;30.93;;;22.90;;
18425;SDS011;9340;48.756;9.226;2023-02-11T06:49:47;33.83;;;23.60;;
18425;SDS011;9340;48.756;9.226;2023-02-11T06:52:14;33.10;;;22.47;;
18425;SDS011;9340;48.756;9.226;2023-02-11T06:54:41;30.50;;;22.57;;
18425;SDS011;9340;48.756;9.226;2023-02-11T06:57:08;29.30;;;22.13;;
18425;SDS011;9340;48.756;9.226;2023-02-11T06:59:34;34.13;;;24.43;;
18425;SDS011;9340;48.756;9.226;2023-02-11T07:02:02;30.83;;;23.67;;
18425;SDS011;9340;48.756;9.226;2023-02-11T07:04:29;31.20;;;22.90;;
18425;SDS011;9340;48.756;9.226;2023-02-11T07:06:56;31.57;;;24.03;;
18425;SDS011;9340;48.756;9.226;2023-02-11T07:09:22;32.67;;;23.53;;
18425;SDS011;9340;48.756;9.226;2023-02-11T07:11:49;31.50;;;23.23;;
18425;SDS011;9340;48.756;9.226;2023-02-11T07:14:16;30.57;;;21.47;;
18425;SDS011;9340;48.756;9.226;2023-02-11T07:16:43;30.50;;;22.30;;
18425;SDS011;9340;48.756;9.226;2023-02-11T07:19:11;29.90;;;22.30;;
18425;SDS011;9340;48.756;9.226;2023-02-11T07:21:38;29.33;;;23.03;;
18425;SDS011;9340;48.756;9.226;2023-02-11T07:24:05;29.23;;;22.63;;
18425;SDS011;9340;48.756;9.226;2023-02-11T07:26:32;30.43;;;24.10;;
18425;SDS011;9340;48.756;9.226;2023-02-11T07:28:59;33.00;;;25.63;;
18425;SDS011;9340;48.756;9.226;2023-02-11T07:31:27;32.17;;;24.00;;
18425;SDS011;9340;48.756;9.226;2023-02-11T07:33:55;30.77;;;22.73;;
18425;SDS011;9340;48.756;9.226;2023-02-11T07:36:25;29.40;;;22.63;;
18425;SDS011;9340;48.756;9.226;2023-02-11T07:38:52;31.80;;;23.67;;
18425;SDS011;9340;48.756;9.226;2023-02-11T07:41:20;29.60;;;23.10;;
18425;SDS011;9340;48.756;9.226;2023-02-11T07:43:49;30.57;;;22.33;;
18425;SDS011;9340;48.756;9.226;2023-02-11T07:46:16;30.13;;;23.43;;
18425;SDS011;9340;48.756;9.226;2023-02-11T07:48:44;29.27;;;22.87;;
18425;SDS011;9340;48.756;9.226;2023-02-11T07:51:12;34.23;;;22.30;;
18425;SDS011;9340;48.756;9.226;2023-02-11T07:53:41;30.27;;;22.50;;
18425;SDS011;9340;48.756;9.226;2023-02-11T07:56:09;31.50;;;23.60;;
18425;SDS011;9340;48.756;9.226;2023-02-11T07:58:36;31.47;;;24.23;;
18425;SDS011;9340;48.756;9.226;2023-02-11T08:01:04;29.87;;;22.43;;
18425;SDS011;9340;48.756;9.226;2023-02-11T08:03:32;33.03;;;24.97;;
18425;SDS011;9340;48.756;9.226;2023-02-11T08:06:01;30.37;;;23.40;;
18425;SDS011;9340;48.756;9.226;2023-02-11T08:08:29;30.93;;;22.73;;
18425;SDS011;9340;48.756;9.226;2023-02-11T08:10:57;29.87;;;22.90;;
18425;SDS011;9340;48.756;9.226;2023-02-11T08:13:24;28.77;;;23.23;;
18425;SDS011;9340;48.756;9.226;2023-02-11T08:15:51;29.83;;;22.27;;
18425;SDS011;9340;48.756;9.226;2023-02-11T08:18:18;33.83;;;25.70;;
18425;SDS011;9340;48.756;9.226;2023-02-11T08:20:45;31.93;;;23.80;;
18425;SDS011;9340;48.756;9.226;2023-02-11T08:23:12;29.63;;;22.97;;
18425;SDS011;9340;48.756;9.226;2023-02-11T08:25:38;29.50;;;22.30;;
18425;SDS011;9340;48.756;9.226;2023-02-11T08:28:06;28.90;;;22.70;;
18425;SDS011;9340;48.756;9.226;2023-02-11T08:30:33;28.37;;;21.70;;
18425;SDS011;9340;48.756;9.226;2023-02-11T08:33:00;29.47;;;24.13;;
18425;SDS011;9340;48.756;9.226;2023-02-11T08:35:27;30.40;;;22.53;;
18425;SDS011;9340;48.756;9.226;2023-02-11T08:37:54;31.50;;;22.53;;
18425;SDS011;9340;48.756;9.226;2023-02-11T08:40:21;30.17;;;24.03;;
18425;SDS011;9340;48.756;9.226;2023-02-11T08:42:49;30.27;;;22.37;;
18425;SDS011;9340;48.756;9.226;2023-02-11T08:45:17;30.40;;;23.00;;
18425;SDS011;9340;48.756;9.226;2023-02-11T08:47:44;29.87;;;24.10;;
18425;SDS011;9340;48.756;9.226;2023-02-11T08:50:11;26.83;;;21.53;;
18425;SDS011;9340;48.756;9.226;2023-02-11T08:52:37;33.13;;;23.93;;
18425;SDS011;9340;48.756;9.226;2023-02-11T08:55:05;32.60;;;23.63;;
18425;SDS011;9340;48.756;9.226;2023-02-11T08:57:32;32.43;;;23.87;;
18425;SDS011;9340;48.756;9.226;2023-02-11T08:59:58;32.77;;;22.00;;
18425;SDS011;9340;48.756;9.226;2023-02-11T09:02:26;32.27;;;24.00;;
18425;SDS011;9340;48.756;9.226;2023-02-11T09:04:53;31.13;;;24.63;;
18425;SDS011;9340;48.756;9.226;2023-02-11T09:07:20;30.20;;;21.70;;
18425;SDS011;9340;48.756;9.226;2023-02-11T09:09:47;33.00;;;24.03;;
18425;SDS011;9340;48.756;9.226;2023-02-11T09:12:14;35.37;;;23.70;;
18425;SDS011;9340;48.756;9.226;2023-02-11T09:14:40;27.90;;;21.83;;
18425;SDS011;9340;48.756;9.226;2023-02-11T09:17:07;31.97;;;22.87;;
18425;SDS011;9340;48.756;9.226;2023-02-11T09:19:35;30.77;;;24.27;;
18425;SDS011;9340;48.756;9.226;2023-02-11T09:22:02;31.03;;;23.77;;
18425;SDS011;9340;48.756;9.226;2023-02-11T09:24:29;30.00;;;22.50;;
18425;SDS011;9340;48.756;9.226;2023-02-11T09:26:56;30.77;;;23.60;;
18425;SDS011;9340;48.756;9.226;2023-02-11T09:29:23;30.93;;;22.77;;
18425;SDS011;9340;48.756;9.226;2023-02-11T09:31:50;24.40;;;19.23;;
18425;SDS011;9340;48.756;9.226;2023-02-11T09:34:17;24.27;;;18.47;;
18425;SDS011;9340;48.756;9.226;2023-02-11T09:36:46;27.87;;;22.17;;
18425;SDS011;9340;48.756;9.226;2023-02-11T09:39:15;26.47;;;21.80;;
18425;SDS011;9340;48.756;9.226;2023-02-11T09:44:44;32.60;;;27.47;;
18425;SDS011;9340;48.756;9.226;2023-02-11T09:47:17;26.90;;;20.97;;
18425;SDS011;9340;48.756;9.226;2023-02-11T09:49:51;27.00;;;21.33;;
18425;SDS011;9340;48.756;9.226;2023-02-11T09:52:26;27.10;;;19.90;;
18425;SDS011;9340;48.756;9.226;2023-02-11T09:54:59;25.77;;;19.13;;
18425;SDS011;9340;48.756;9.226;2023-02-11T09:57:30;22.23;;;17.67;;
18425;SDS011;9340;48.756;9.226;2023-02-11T09:59:59;22.77;;;18.13;;
18425;SDS011;9340;48.756;9.226;2023-02-11T10:02:28;25.17;;;20.07;;
18425;SDS011;9340;48.756;9.226;2023-02-11T10:05:20;22.80;;;17.93;;
18425;SDS011;9340;48.756;9.226;2023-02-11T10:08:02;22.20;;;16.77;;
18425;SDS011;9340;48.756;9.226;2023-02-11T10:10:43;22.50;;;16.80;;
18425;SDS011;9340;48.756;9.226;2023-02-11T10:13:21;21.77;;;16.77;;
18425;SDS011;9340;48.756;9.226;2023-02-11T10:15:58;19.17;;;16.23;;
18425;SDS011;9340;48.756;9.226;2023-02-11T10:18:39;22.23;;;17.77;;
18425;SDS011;9340;48.756;9.226;2023-02-11T10:21:22;24.40;;;19.93;;
18425;SDS011;9340;48.756;9.226;2023-02-11T10:23:58;27.85;;;24.90;;
18425;SDS011;9340;48.756;9.226;2023-02-11T10:26:29;24.80;;;20.43;;
18425;SDS011;9340;48.756;9.226;2023-02-11T10:28:58;25.60;;;20.90;;
18425;SDS011;9340;48.756;9.226;2023-02-11T10:31:33;24.33;;;19.63;;
18425;SDS011;9340;48.756;9.226;2023-02-11T10:34:06;26.07;;;20.43;;
18425;SDS011;9340;48.756;9.226;2023-02-11T10:36:35;28.33;;;21.30;;
18425;SDS011;9340;48.756;9.226;2023-02-11T10:39:10;24.83;;;20.07;;
18425;SDS011;9340;48.756;9.226;2023-02-11T10:41:39;26.33;;;21.17;;
18425;SDS011;9340;48.756;9.226;2023-02-11T10:44:10;25.67;;;21.60;;
18425;SDS011;9340;48.756;9.226;2023-02-11T10:46:45;26.77;;;20.30;;
18425;SDS011;9340;48.756;9.226;2023-02-11T10:49:12;26.63;;;23.60;;
18425;SDS011;9340;48.756;9.226;2023-02-11T10:52:10;28.87;;;22.10;;
18425;SDS011;9340;48.756;9.226;2023-02-11T10:54:55;26.17;;;22.63;;
18425;SDS011;9340;48.756;9.226;2023-02-11T10:57:25;27.10;;;22.00;;
18425;SDS011;9340;48.756;9.226;2023-02-11T10:59:56;28.50;;;25.42;;
18425;SDS011;9340;48.756;9.226;2023-02-11T11:02:26;27.92;;;25.13;;
18425;SDS011;9340;48.756;9.226;2023-02-11T11:04:56;25.77;;;20.93;;
18425;SDS011;9340;48.756;9.226;2023-02-11T11:07:26;27.20;;;21.13;;
18425;SDS011;9340;48.756;9.226;2023-02-11T11:09:57;27.23;;;21.27;;
18425;SDS011;9340;48.756;9.226;2023-02-11T11:12:28;24.60;;;20.70;;
18425;SDS011;9340;48.756;9.226;2023-02-11T11:15:14;25.30;;;19.97;;
18425;SDS011;9340;48.756;9.226;2023-02-11T11:17:43;31.03;;;21.20;;
18425;SDS011;9340;48.756;9.226;2023-02-11T11:20:14;27.10;;;21.90;;
18425;SDS011;9340;48.756;9.226;2023-02-11T11:22:45;27.60;;;20.30;;
18425;SDS011;9340;48.756;9.226;2023-02-11T11:25:23;25.03;;;20.90;;
18425;SDS011;9340;48.756;9.226;2023-02-11T11:27:53;24.73;;;20.77;;
18425;SDS011;9340;48.756;9.226;2023-02-11T11:30:22;24.97;;;19.67;;
18425;SDS011;9340;48.756;9.226;2023-02-11T11:32:52;28.30;;;25.40;;
18425;SDS011;9340;48.756;9.226;2023-02-11T11:35:22;24.90;;;22.30;;
18425;SDS011;9340;48.756;9.226;2023-02-11T11:37:52;29.13;;;23.77;;
18425;SDS011;9340;48.756;9.226;2023-02-11T11:40:24;23.27;;;20.73;;
18425;SDS011;9340;48.756;9.226;2023-02-11T11:43:04;25.57;;;19.13;;
18425;SDS011;9340;48.756;9.226;2023-02-11T11:45:42;20.67;;;17.47;;
18425;SDS011;9340;48.756;9.226;2023-02-11T11:48:20;18.27;;;16.00;;
18425;SDS011;9340;48.756;9.226;2023-02-11T11:50:55;21.00;;;18.98;;
18425;SDS011;9340;48.756;9.226;2023-02-11T11:53:26;18.00;;;16.03;;
18425;SDS011;9340;48.756;9.226;2023-02-11T11:56:02;19.23;;;15.23;;
18425;SDS011;9340;48.756;9.226;2023-02-11T11:58:32;25.63;;;18.53;;
18425;SDS011;9340;48.756;9.226;2023-02-11T12:01:02;21.57;;;16.07;;
18425;SDS011;9340;48.756;9.226;2023-02-11T12:03:51;15.47;;;13.70;;
18425;SDS011;9340;48.756;9.226;2023-02-11T12:06:34;17.90;;;15.00;;
18425;SDS011;9340;48.756;9.226;2023-02-11T12:09:11;17.20;;;14.10;;
18425;SDS011;9340;48.756;9.226;2023-02-11T12:14:18;15.93;;;14.23;;
18425;SDS011;9340;48.756;9.226;2023-02-11T12:16:55;82.07;;;36.20;;
18425;SDS011;9340;48.756;9.226;2023-02-11T12:19:46;16.67;;;13.63;;
18425;SDS011;9340;48.756;9.226;2023-02-11T12:22:23;19.97;;;14.57;;
18425;SDS011;9340;48.756;9.226;2023-02-11T12:25:02;15.07;;;12.40;;
18425;SDS011;9340;48.756;9.226;2023-02-11T12:27:49;12.93;;;10.83;;
18425;SDS011;9340;48.756;9.226;2023-02-11T12:30:31;11.97;;;10.70;;
18425;SDS011;9340;48.756;9.226;2023-02-11T12:33:07;11.37;;;10.17;;
18425;SDS011;9340;48.756;9.226;2023-02-11T12:35:41;12.97;;;10.87;;
18425;SDS011;9340;48.756;9.226;2023-02-11T12:38:31;12.80;;;10.63;;
18425;SDS011;9340;48.756;9.226;2023-02-11T12:41:12;11.90;;;9.87;;
18425;SDS011;9340;48.756;9.226;2023-02-11T12:44:08;11.30;;;9.70;;
18425;SDS011;9340;48.756;9.226;2023-02-11T12:46:46;11.40;;;9.50;;
18425;SDS011;9340;48.756;9.226;2023-02-11T12:49:21;11.17;;;10.03;;
18425;SDS011;9340;48.756;9.226;2023-02-11T12:52:17;11.37;;;9.60;;
18425;SDS011;9340;48.756;9.226;2023-02-11T12:54:57;11.77;;;9.70;;
18425;SDS011;9340;48.756;9.226;2023-02-11T12:57:28;11.03;;;9.33;;
18425;SDS011;9340;48.756;9.226;2023-02-11T12:59:59;10.90;;;9.60;;
18425;SDS011;9340;48.756;9.226;2023-02-11T13:02:33;9.43;;;8.43;;
18425;SDS011;9340;48.756;9.226;2023-02-11T13:05:09;9.00;;;7.60;;
18425;SDS011;9340;48.756;9.226;2023-02-11T13:07:45;9.40;;;7.97;;
18425;SDS011;9340;48.756;9.226;2023-02-11T13:10:20;8.80;;;7.90;;
18425;SDS011;9340;48.756;9.226;2023-02-11T13:12:51;9.00;;;8.07;;
18425;SDS011;9340;48.756;9.226;2023-02-11T13:15:39;9.37;;;7.73;;
18425;SDS011;9340;48.756;9.226;2023-02-11T13:18:11;11.30;;;8.60;;
18425;SDS011;9340;48.756;9.226;2023-02-11T13:20:46;9.43;;;7.80;;
18425;SDS011;9340;48.756;9.226;2023-02-11T13:23:22;9.50;;;8.57;;
18425;SDS011;9340;48.756;9.226;2023-02-11T13:25:53;7.23;;;6.53;;
18425;SDS011;9340;48.756;9.226;2023-02-11T13:28:39;9.13;;;7.47;;
18425;SDS011;9340;48.756;9.226;2023-02-11T13:31:12;8.33;;;7.43;;
18425;SDS011;9340;48.756;9.226;2023-02-11T13:33:43;8.17;;;7.37;;
18425;SDS011;9340;48.756;9.226;2023-02-11T13:36:14;9.37;;;7.67;;
18425;SDS011;9340;48.756;9.226;2023-02-11T13:38:56;10.47;;;9.07;;
18425;SDS011;9340;48.756;9.226;2023-02-11T13:41:27;9.60;;;8.60;;
18425;SDS011;9340;48.756;9.226;2023-02-11T13:44:03;10.20;;;9.20;;
18425;SDS011;9340;48.756;9.226;2023-02-11T13:46:47;11.27;;;8.87;;
18425;SDS011;9340;48.756;9.226;2023-02-11T13:49:23;13.97;;;11.20;;
18425;SDS011;9340;48.756;9.226;2023-02-11T13:51:54;18.27;;;13.80;;
18425;SDS011;9340;48.756;9.226;2023-02-11T13:54:24;19.73;;;14.23;;
18425;SDS011;9340;48.756;9.226;2023-02-11T14:00:03;16.90;;;12.87;;
18425;SDS011;9340;48.756;9.226;2023-02-11T14:03:21;16.83;;;13.40;;
18425;SDS011;9340;48.756;9.226;2023-02-11T14:06:11;17.30;;;14.23;;
18425;SDS011;9340;48.756;9.226;2023-02-11T14:08:58;18.23;;;15.23;;
18425;SDS011;9340;48.756;9.226;2023-02-11T14:11:43;15.10;;;12.47;;
18425;SDS011;9340;48.756;9.226;2023-02-11T14:14:23;18.03;;;12.80;;
18425;SDS011;9340;48.756;9.226;2023-02-11T14:17:15;14.93;;;13.40;;
18425;SDS011;9340;48.756;9.226;2023-02-11T14:19:45;15.30;;;12.07;;
18425;SDS011;9340;48.756;9.226;2023-02-11T14:22:14;15.47;;;12.27;;
18425;SDS011;9340;48.756;9.226;2023-02-11T14:24:49;14.90;;;12.60;;
18425;SDS011;9340;48.756;9.226;2023-02-11T14:27:21;14.10;;;12.60;;
18425;SDS011;9340;48.756;9.226;2023-02-11T14:30:09;17.03;;;13.13;;
18425;SDS011;9340;48.756;9.226;2023-02-11T14:32:51;15.57;;;12.97;;
18425;SDS011;9340;48.756;9.226;2023-02-11T14:35:50;16.43;;;13.50;;
18425;SDS011;9340;48.756;9.226;2023-02-11T14:38:30;18.17;;;13.10;;
18425;SDS011;9340;48.756;9.226;2023-02-11T14:41:06;14.77;;;12.87;;
18425;SDS011;9340;48.756;9.226;2023-02-11T14:43:37;15.80;;;13.17;;
18425;SDS011;9340;48.756;9.226;2023-02-11T14:46:07;17.90;;;14.53;;
18425;SDS011;9340;48.756;9.226;2023-02-11T14:48:35;18.17;;;14.00;;
18425;SDS011;9340;48.756;9.226;2023-02-11T14:51:05;18.43;;;14.43;;
18425;SDS011;9340;48.756;9.226;2023-02-11T14:53:36;18.47;;;14.47;;
18425;SDS011;9340;48.756;9.226;2023-02-11T14:56:15;19.20;;;14.77;;
18425;SDS011;9340;48.756;9.226;2023-02-11T14:58:45;15.87;;;12.40;;
18425;SDS011;9340;48.756;9.226;2023-02-11T15:01:26;15.27;;;13.60;;
18425;SDS011;9340;48.756;9.226;2023-02-11T15:03:56;18.33;;;15.83;;
18425;SDS011;9340;48.756;9.226;2023-02-11T15:06:25;17.93;;;13.33;;
18425;SDS011;9340;48.756;9.226;2023-02-11T15:08:56;16.20;;;13.00;;
18425;SDS011;9340;48.756;9.226;2023-02-11T15:11:29;13.00;;;11.60;;
18425;SDS011;9340;48.756;9.226;2023-02-11T15:13:58;11.60;;;9.67;;
18425;SDS011;9340;48.756;9.226;2023-02-11T15:16:36;12.93;;;11.10;;
18425;SDS011;9340;48.756;9.226;2023-02-11T15:19:10;13.97;;;10.93;;
18425;SDS011;9340;48.756;9.226;2023-02-11T15:21:46;14.53;;;11.20;;
18425;SDS011;9340;48.756;9.226;2023-02-11T15:24:23;13.23;;;10.93;;
18425;SDS011;9340;48.756;9.226;2023-02-11T15:26:55;14.63;;;11.00;;
18425;SDS011;9340;48.756;9.226;2023-02-11T15:29:24;13.47;;;9.97;;
18425;SDS011;9340;48.756;9.226;2023-02-11T15:32:02;13.10;;;11.73;;
18425;SDS011;9340;48.756;9.226;2023-02-11T15:34:30;13.90;;;11.77;;
18425;SDS011;9340;48.756;9.226;2023-02-11T15:36:58;14.50;;;12.77;;
18425;SDS011;9340;48.756;9.226;2023-02-11T15:39:30;17.43;;;13.23;;
18425;SDS011;9340;48.756;9.226;2023-02-11T15:42:16;15.90;;;13.60;;
18425;SDS011;9340;48.756;9.226;2023-02-11T15:44:44;13.93;;;12.43;;
18425;SDS011;9340;48.756;9.226;2023-02-11T15:47:12;15.33;;;12.77;;
18425;SDS011;9340;48.756;9.226;2023-02-11T15:49:45;13.90;;;12.10;;
18425;SDS011;9340;48.756;9.226;2023-02-11T15:52:13;15.40;;;13.47;;
18425;SDS011;9340;48.756;9.226;2023-02-11T15:54:48;15.87;;;13.63;;
18425;SDS011;9340;48.756;9.226;2023-02-11T15:57:15;16.37;;;12.73;;
18425;SDS011;9340;48.756;9.226;2023-02-11T15:59:44;17.27;;;13.03;;
18425;SDS011;9340;48.756;9.226;2023-02-11T16:02:15;16.97;;;12.70;;
18425;SDS011;9340;48.756;9.226;2023-02-11T16:04:48;16.37;;;13.20;;
18425;SDS011;9340;48.756;9.226;2023-02-11T16:10:18;16.27;;;13.70;;
18425;SDS011;9340;48.756;9.226;2023-02-11T16:12:50;19.13;;;14.97;;